Chopin — ZDFE4 — position and weather

sailwx.info

Track history (hours):
 
Tides and Currents Weather Stations Pressure Air Temp Water Temp Dewpoint Dewpoint Depression Visibility Wind Speed Wind Dir Waves Ship Positions

Chopin

Last reported at 2015-Feb-17 17:29 UTC. Time now 2015-Mar-01 20:54 UTC.
Position N 50°13' W 002°54'.
Warning: this ship's position is 12 days out of date.

Length 104 m; draft 6 m.

Type: Cargo ship. MMSI: 236099000.

Date/timePositionNaut miles runAvg speedWind from/ knotsBaromVisibWave heightAir tempDewpointWater temp
2015-Feb-17 17:29N 50°13' W 002°54'7311.4
2015-Feb-17 11:04N 50°30' W 001°03'612.1
2015-Feb-17 10:32N 50°32' W 000°53'1111.2
2015-Feb-17 09:33N 50°35' W 000°37'1010.0
2015-Feb-17 08:33N 50°39' W 000°22'9 9.2
2015-Feb-17 07:33N 50°43' W 000°09'9 8.8
2015-Feb-17 06:33N 50°47' E 000°04'  
2015-Feb-14 05:31N 50°47' E 000°03'2 1.6
2015-Feb-14 04:29N 50°46' E 000°02'0 0.1
2015-Feb-14 03:32N 50°46' E 000°02'0 0.0
2015-Feb-14 02:32N 50°46' E 000°02'0 0.0
2015-Feb-14 01:32N 50°46' E 000°02'0 0.0
2015-Feb-14 00:32N 50°46' E 000°02'1 1.2
2015-Feb-13 23:33N 50°45' E 000°00'1110.9
2015-Feb-13 22:33N 50°41' W 000°16'1110.5
2015-Feb-13 21:33N 50°37' W 000°31'1010.1
2015-Feb-13 20:33N 50°33' W 000°46'9 9.4
2015-Feb-13 19:33N 50°31' W 001°00'10 9.4
2015-Feb-13 18:28N 50°28' W 001°16'2110.6
2015-Feb-13 16:29N 50°24' W 001°48'1111.9
2015-Feb-13 15:32N 50°21' W 002°05'3611.9
2015-Feb-13 12:32N 50°12' W 002°59'412 9.6
2015-Feb-11 17:30N 43°22' W 001°57'3 0.1
2015-Feb-09 18:27N 43°19' W 001°55'0 0.0
2015-Feb-09 13:24N 43°19' W 001°55'0 0.0
2015-Feb-09 11:06N 43°19' W 001°55'0 0.0
2015-Feb-09 10:30N 43°19' W 001°55'0 0.0
2015-Feb-09 09:21N 43°19' W 001°55'0 0.0
2015-Feb-09 08:27N 43°19' W 001°55'2 2.3
2015-Feb-09 07:27N 43°21' W 001°56'  
Track history (hours):
 
Tides and Currents Weather Stations Pressure Air Temp Water Temp Dewpoint Dewpoint Depression Visibility Wind Speed Wind Dir Waves Ship Positions

Chopin

Last reported at 2015-Feb-17 17:29 UTC. Time now 2015-Mar-01 20:54 UTC.
Position N 50°13' W 002°54'.
Warning: this ship's position is 12 days out of date.

Length 104 m; draft 6 m.

Type: Cargo ship. MMSI: 236099000.

Date/timePositionNaut miles runAvg speedWind from/ knotsBaromVisibWave heightAir tempDewpointWater temp
2015-Feb-17 17:29N 50°13' W 002°54'7311.4
2015-Feb-17 11:04N 50°30' W 001°03'612.1
2015-Feb-17 10:32N 50°32' W 000°53'1111.2
2015-Feb-17 09:33N 50°35' W 000°37'1010.0
2015-Feb-17 08:33N 50°39' W 000°22'9 9.2
2015-Feb-17 07:33N 50°43' W 000°09'9 8.8
2015-Feb-17 06:33N 50°47' E 000°04'  
2015-Feb-14 05:31N 50°47' E 000°03'2 1.6
2015-Feb-14 04:29N 50°46' E 000°02'0 0.1
2015-Feb-14 03:32N 50°46' E 000°02'0 0.0
2015-Feb-14 02:32N 50°46' E 000°02'0 0.0
2015-Feb-14 01:32N 50°46' E 000°02'0 0.0
2015-Feb-14 00:32N 50°46' E 000°02'1 1.2
2015-Feb-13 23:33N 50°45' E 000°00'1110.9
2015-Feb-13 22:33N 50°41' W 000°16'1110.5
2015-Feb-13 21:33N 50°37' W 000°31'1010.1
2015-Feb-13 20:33N 50°33' W 000°46'9 9.4
2015-Feb-13 19:33N 50°31' W 001°00'10 9.4
2015-Feb-13 18:28N 50°28' W 001°16'2110.6
2015-Feb-13 16:29N 50°24' W 001°48'1111.9
2015-Feb-13 15:32N 50°21' W 002°05'3611.9
2015-Feb-13 12:32N 50°12' W 002°59'412 9.6
2015-Feb-11 17:30N 43°22' W 001°57'3 0.1
2015-Feb-09 18:27N 43°19' W 001°55'0 0.0
2015-Feb-09 13:24N 43°19' W 001°55'0 0.0
2015-Feb-09 11:06N 43°19' W 001°55'0 0.0
2015-Feb-09 10:30N 43°19' W 001°55'0 0.0
2015-Feb-09 09:21N 43°19' W 001°55'0 0.0
2015-Feb-09 08:27N 43°19' W 001°55'2 2.3
2015-Feb-09 07:27N 43°21' W 001°56'  

Dump ship's entire track history